createdAt,value
2019-02-07T19:18:20.951Z,4.41
2019-02-07T19:20:48.657Z,4.41
2019-02-07T19:23:16.482Z,4.29
2019-02-07T19:25:44.455Z,4.38
2019-02-07T19:28:12.408Z,4.28
2019-02-07T19:30:40.219Z,4.34
2019-02-07T19:33:08.164Z,4.36
2019-02-07T19:35:35.957Z,4.50
2019-02-07T19:38:04.454Z,4.41
2019-02-07T19:40:32.319Z,4.41
2019-02-07T19:42:59.964Z,4.47
2019-02-07T19:45:28.459Z,4.56
2019-02-07T19:47:57.073Z,4.44
2019-02-07T19:50:25.866Z,4.46
2019-02-07T19:52:53.659Z,4.43
2019-02-07T19:55:26.117Z,4.38
2019-02-07T19:57:54.166Z,4.42
2019-02-07T20:00:23.312Z,4.41
2019-02-07T20:02:51.255Z,4.21
2019-02-07T20:05:20.207Z,4.17
2019-02-07T20:08:25.359Z,4.88
2019-02-07T20:10:53.945Z,4.34
2019-02-07T20:13:22.466Z,4.14
2019-02-07T20:15:51.317Z,4.15
2019-02-07T20:18:19.895Z,4.15
2019-02-07T20:20:48.474Z,4.25
2019-02-07T20:23:17.429Z,4.32
2019-02-07T20:25:46.026Z,4.38
2019-02-07T20:28:14.665Z,4.26
2019-02-07T20:30:44.834Z,4.41
2019-02-07T20:33:13.709Z,4.27
2019-02-07T20:35:42.541Z,4.34
2019-02-07T20:38:11.541Z,4.45
2019-02-07T20:40:40.785Z,4.53
2019-02-07T20:43:09.503Z,4.32
2019-02-07T20:45:38.563Z,4.28
2019-02-07T20:48:08.470Z,4.36
2019-02-07T20:50:37.206Z,4.13
2019-02-07T20:53:07.592Z,4.29
2019-02-07T20:55:36.296Z,4.29
2019-02-07T20:58:05.646Z,4.34
2019-02-07T21:00:36.834Z,4.27
2019-02-07T21:03:06.705Z,4.41
2019-02-07T21:05:36.006Z,4.21
2019-02-07T21:08:04.854Z,4.38
2019-02-07T21:10:40.872Z,4.41
2019-02-07T21:13:09.927Z,4.19
2019-02-07T21:15:38.529Z,4.44
2019-02-07T21:18:07.269Z,4.46
2019-02-07T21:20:36.826Z,4.51
2019-02-07T21:23:06.313Z,4.59
2019-02-07T21:25:49.499Z,4.63
2019-02-07T21:28:18.215Z,4.49
2019-02-07T21:30:46.894Z,4.54
2019-02-07T21:33:16.751Z,4.69
2019-02-07T21:35:45.329Z,4.75
2019-02-07T21:38:16.533Z,4.79
2019-02-07T21:40:45.288Z,4.80
2019-02-07T21:43:14.647Z,4.91
2019-02-07T21:45:43.206Z,4.73
2019-02-07T21:48:11.828Z,4.54
2019-02-07T21:50:40.429Z,4.76
2019-02-07T21:53:08.934Z,4.51
2019-02-07T21:55:38.185Z,4.58
2019-02-07T21:58:08.627Z,4.84
2019-02-07T22:00:44.790Z,4.66
2019-02-07T22:03:14.434Z,4.79
2019-02-07T22:05:43.657Z,4.69
2019-02-07T22:08:12.232Z,4.92
2019-02-07T22:10:40.900Z,4.76
2019-02-07T22:13:10.278Z,4.57
2019-02-07T22:15:38.800Z,4.69
2019-02-07T22:18:07.885Z,4.59
2019-02-07T22:20:36.349Z,4.67
2019-02-07T22:23:05.310Z,4.92
2019-02-07T22:25:33.779Z,4.51
2019-02-07T22:28:02.580Z,4.37
2019-02-07T22:30:33.962Z,4.32
2019-02-07T22:33:02.782Z,4.44
2019-02-07T22:35:31.564Z,4.21
2019-02-07T22:38:00.697Z,4.25
2019-02-07T22:40:29.092Z,4.36
2019-02-07T22:42:59.460Z,4.41
2019-02-07T22:45:29.117Z,4.68
2019-02-07T22:47:57.651Z,4.64
2019-02-07T22:50:30.393Z,4.47
2019-02-07T22:53:00.728Z,4.53
2019-02-07T22:55:29.498Z,4.50
2019-02-07T22:57:58.166Z,4.51
2019-02-07T23:00:34.401Z,4.50
2019-02-07T23:03:05.110Z,4.52
2019-02-07T23:05:33.607Z,4.48
2019-02-07T23:08:02.248Z,4.60
2019-02-07T23:10:30.815Z,4.57
2019-02-07T23:13:00.623Z,4.61
2019-02-07T23:15:29.227Z,4.18
2019-02-07T23:17:57.698Z,4.55
2019-02-07T23:20:26.703Z,4.41
2019-02-07T23:22:55.247Z,4.27
2019-02-07T23:25:23.869Z,4.36
2019-02-07T23:27:52.263Z,4.69
2019-02-07T23:30:21.325Z,4.50
2019-02-07T23:32:49.991Z,4.53
2019-02-07T23:35:18.396Z,4.52
2019-02-07T23:37:46.983Z,4.39
2019-02-07T23:40:22.825Z,4.50
2019-02-07T23:42:51.558Z,4.47
2019-02-07T23:45:24.655Z,4.56
2019-02-07T23:47:53.132Z,4.44
2019-02-07T23:50:21.636Z,4.29
2019-02-07T23:52:50.096Z,4.34
2019-02-07T23:55:18.532Z,4.32
2019-02-07T23:57:47.529Z,4.24
